createdAt,value
2017-10-24T00:02:20.512Z,21.90
2017-10-24T00:04:47.516Z,18.70
2017-10-24T00:07:14.664Z,24.93
2017-10-24T00:09:42.843Z,17.33
2017-10-24T00:12:10.017Z,18.20
2017-10-24T00:14:37.024Z,17.90
2017-10-24T00:17:04.653Z,18.50
2017-10-24T00:19:33.436Z,18.53
2017-10-24T00:22:01.116Z,16.33
2017-10-24T00:24:28.632Z,19.10
2017-10-24T00:26:56.577Z,17.83
2017-10-24T00:29:23.923Z,19.03
2017-10-24T00:31:52.951Z,16.70
2017-10-24T00:34:20.288Z,16.90
2017-10-24T00:36:47.320Z,17.20
2017-10-24T00:39:14.757Z,15.57
2017-10-24T00:41:41.759Z,15.93
2017-10-24T00:44:11.454Z,16.97
2017-10-24T00:46:39.168Z,15.77
2017-10-24T00:49:06.639Z,17.00
2017-10-24T00:51:33.957Z,14.40
2017-10-24T00:54:01.371Z,14.63
2017-10-24T00:56:28.512Z,11.90
2017-10-24T00:58:55.849Z,11.47
2017-10-24T01:01:23.744Z,11.70
2017-10-24T01:03:51.172Z,12.27
2017-10-24T01:06:18.728Z,11.33
2017-10-24T01:08:46.320Z,11.47
2017-10-24T01:11:13.725Z,12.03
2017-10-24T01:13:42.037Z,12.10
2017-10-24T01:16:09.427Z,21.87
2017-10-24T01:18:38.479Z,12.53
2017-10-24T01:21:06.248Z,10.40
2017-10-24T01:23:34.760Z,11.70
2017-10-24T01:26:02.388Z,12.30
2017-10-24T01:28:31.176Z,11.90
2017-10-24T01:30:59.691Z,11.97
2017-10-24T01:33:27.111Z,10.73
2017-10-24T01:35:57.136Z,11.77
2017-10-24T01:38:24.569Z,9.90
2017-10-24T01:40:52.672Z,10.47
2017-10-24T01:43:21.048Z,11.57
2017-10-24T01:45:49.264Z,11.03
2017-10-24T01:48:16.712Z,11.50
2017-10-24T01:50:44.492Z,12.80
2017-10-24T01:53:12.529Z,11.73
2017-10-24T01:55:39.862Z,12.00
2017-10-24T01:58:07.133Z,11.97
2017-10-24T02:00:34.568Z,12.43
2017-10-24T02:03:04.710Z,14.60
2017-10-24T02:05:32.100Z,14.40
2017-10-24T02:08:00.549Z,14.07
2017-10-24T02:10:28.109Z,14.03
2017-10-24T02:12:55.366Z,14.83
2017-10-24T02:15:23.001Z,12.93
2017-10-24T02:17:50.376Z,17.80
2017-10-24T02:20:17.637Z,12.30
2017-10-24T02:22:45.396Z,13.27
2017-10-24T02:25:13.501Z,13.77
2017-10-24T02:27:43.184Z,14.70
2017-10-24T02:30:10.973Z,14.40
2017-10-24T02:32:40.613Z,12.97
2017-10-24T02:35:08.669Z,15.43
2017-10-24T02:37:36.952Z,14.10
2017-10-24T02:40:04.733Z,14.70
2017-10-24T02:42:32.131Z,20.10
2017-10-24T02:45:00.517Z,18.00
2017-10-24T02:47:28.035Z,15.50
2017-10-24T02:49:56.447Z,15.07
2017-10-24T02:52:23.910Z,16.97
2017-10-24T02:54:54.220Z,15.30
2017-10-24T02:57:21.373Z,14.63
2017-10-24T02:59:48.460Z,15.00
2017-10-24T03:02:16.612Z,15.17
2017-10-24T03:04:43.649Z,15.67
2017-10-24T03:07:11.736Z,16.50
2017-10-24T03:09:39.252Z,15.20
2017-10-24T03:12:07.499Z,14.60
2017-10-24T03:14:34.729Z,14.23
2017-10-24T03:17:02.510Z,16.07
2017-10-24T03:19:30.351Z,13.40
2017-10-24T03:21:58.828Z,15.63
2017-10-24T03:24:26.091Z,14.67
2017-10-24T03:26:53.496Z,12.67
2017-10-24T03:29:21.960Z,13.37
2017-10-24T03:31:49.569Z,15.23
2017-10-24T03:34:18.856Z,18.30
2017-10-24T03:36:46.242Z,14.23
2017-10-24T03:39:13.466Z,15.77
2017-10-24T03:41:42.317Z,13.77
2017-10-24T03:44:09.849Z,14.10
2017-10-24T03:46:36.969Z,15.07
2017-10-24T03:49:04.224Z,15.93
2017-10-24T03:51:31.554Z,15.63
2017-10-24T03:53:59.831Z,14.63
2017-10-24T03:56:28.517Z,14.43
2017-10-24T03:58:56.476Z,14.77
2017-10-24T04:01:23.877Z,14.77
2017-10-24T04:03:52.417Z,16.40
2017-10-24T04:06:19.680Z,14.20
2017-10-24T04:08:47.656Z,19.70
2017-10-24T04:11:16.955Z,17.17
2017-10-24T04:13:46.103Z,19.63
2017-10-24T04:16:13.017Z,17.80
2017-10-24T04:18:40.540Z,14.00
2017-10-24T04:21:08.733Z,17.50
2017-10-24T04:23:39.329Z,18.43
2017-10-24T04:26:16.538Z,15.80
2017-10-24T04:28:59.781Z,17.63
2017-10-24T04:31:27.634Z,15.00
2017-10-24T04:33:55.479Z,15.90
2017-10-24T04:36:23.234Z,14.70
2017-10-24T04:38:51.239Z,14.03
2017-10-24T04:41:21.284Z,15.73
2017-10-24T04:43:50.960Z,13.63
2017-10-24T04:46:18.806Z,13.90
2017-10-24T04:48:53.282Z,16.53
2017-10-24T04:51:22.500Z,14.57
2017-10-24T04:53:52.273Z,12.60
2017-10-24T04:56:19.689Z,12.83
2017-10-24T04:58:49.127Z,13.80
2017-10-24T05:01:18.026Z,13.97
2017-10-24T05:03:53.321Z,13.27
2017-10-24T05:06:22.204Z,13.93
2017-10-24T05:08:52.892Z,13.37
2017-10-24T05:11:20.965Z,13.27
2017-10-24T05:13:48.556Z,15.20
2017-10-24T05:16:17.797Z,14.80
2017-10-24T05:18:44.940Z,13.97
2017-10-24T05:21:11.976Z,12.17
2017-10-24T05:23:39.454Z,13.67
2017-10-24T05:26:06.475Z,12.60
2017-10-24T05:28:33.584Z,13.60
2017-10-24T05:31:01.449Z,13.70
2017-10-24T05:33:29.800Z,11.50
2017-10-24T05:35:57.128Z,12.83
2017-10-24T05:38:24.745Z,12.40
2017-10-24T05:40:52.848Z,10.03
2017-10-24T05:43:23.526Z,13.17
2017-10-24T05:45:50.970Z,12.10
2017-10-24T05:48:18.592Z,10.17
2017-10-24T05:50:47.025Z,11.40
2017-10-24T05:53:14.419Z,9.23
2017-10-24T05:55:41.385Z,8.93
2017-10-24T05:58:09.837Z,11.30
2017-10-24T06:00:36.849Z,8.57
2017-10-24T06:03:04.729Z,9.70
2017-10-24T06:05:32.697Z,9.50
2017-10-24T06:08:00.048Z,9.60
2017-10-24T06:10:28.618Z,9.90
2017-10-24T06:12:56.199Z,9.30
2017-10-24T06:15:23.552Z,8.57
2017-10-24T06:17:50.525Z,8.80
2017-10-24T06:20:17.564Z,8.80
2017-10-24T06:22:44.605Z,9.23
2017-10-24T06:25:11.544Z,8.73
2017-10-24T06:27:38.899Z,9.40
2017-10-24T06:30:06.863Z,9.10
2017-10-24T06:32:34.349Z,8.87
2017-10-24T06:35:01.712Z,8.27
2017-10-24T06:37:29.825Z,8.37
2017-10-24T06:39:56.906Z,8.20
2017-10-24T06:42:24.762Z,8.40
2017-10-24T06:44:52.223Z,8.90
2017-10-24T06:47:19.226Z,9.73
2017-10-24T06:49:46.348Z,9.40
2017-10-24T06:52:13.640Z,8.67
2017-10-24T06:54:41.319Z,8.17
2017-10-24T06:57:09.632Z,9.00
2017-10-24T06:59:37.204Z,10.57
2017-10-24T07:02:04.412Z,9.70
2017-10-24T07:04:31.404Z,9.07
2017-10-24T07:06:58.517Z,8.73
2017-10-24T07:09:25.815Z,9.93
2017-10-24T07:11:53.120Z,9.53
2017-10-24T07:14:21.122Z,9.97
2017-10-24T07:16:48.271Z,11.63
2017-10-24T07:19:15.565Z,11.87
2017-10-24T07:21:43.493Z,10.37
2017-10-24T07:24:11.564Z,13.23
2017-10-24T07:26:38.659Z,11.23
2017-10-24T07:29:05.780Z,12.40
2017-10-24T07:31:32.771Z,13.93
2017-10-24T07:33:59.716Z,11.60
2017-10-24T07:36:27.582Z,12.80
2017-10-24T07:38:56.561Z,10.70
2017-10-24T07:41:24.396Z,12.60
2017-10-24T07:43:51.976Z,10.43
2017-10-24T07:46:19.246Z,11.70
2017-10-24T07:48:47.180Z,12.10
2017-10-24T07:51:14.495Z,12.43
2017-10-24T07:53:42.148Z,12.73
2017-10-24T07:56:09.536Z,12.37
2017-10-24T07:58:36.598Z,11.43
2017-10-24T08:01:03.849Z,13.33
2017-10-24T08:03:30.910Z,12.20
2017-10-24T08:05:57.869Z,12.90
2017-10-24T08:08:25.592Z,12.20
2017-10-24T08:10:52.825Z,13.50
2017-10-24T08:13:19.871Z,11.60
2017-10-24T08:15:47.416Z,11.40
2017-10-24T08:18:14.497Z,12.97
2017-10-24T08:20:41.919Z,11.93
2017-10-24T08:23:10.101Z,12.53
2017-10-24T08:25:37.920Z,12.63
2017-10-24T08:28:05.466Z,11.80
2017-10-24T08:30:32.572Z,12.70
2017-10-24T08:33:01.073Z,12.47
2017-10-24T08:35:28.360Z,11.90
2017-10-24T08:37:56.857Z,11.30
2017-10-24T08:40:25.610Z,11.47
2017-10-24T08:42:52.592Z,11.23
2017-10-24T08:45:20.560Z,11.73
2017-10-24T08:47:47.553Z,12.80
2017-10-24T08:50:15.564Z,11.67
2017-10-24T08:52:43.650Z,12.03
2017-10-24T08:55:11.593Z,11.17
2017-10-24T08:57:38.928Z,10.50
2017-10-24T09:00:06.918Z,11.57
2017-10-24T09:02:34.607Z,12.57
2017-10-24T09:05:01.666Z,9.17
2017-10-24T09:07:29.839Z,10.40
2017-10-24T09:09:57.775Z,10.70
2017-10-24T09:12:24.744Z,10.93
2017-10-24T09:14:52.620Z,13.20
2017-10-24T09:17:38.045Z,8.90
2017-10-24T09:20:07.057Z,7.90
2017-10-24T09:22:34.844Z,7.97
2017-10-24T09:25:03.026Z,9.27
2017-10-24T09:27:30.384Z,7.63
2017-10-24T09:29:57.599Z,7.70
2017-10-24T09:32:28.373Z,7.17
2017-10-24T09:34:55.583Z,8.03
2017-10-24T09:37:23.316Z,7.03
2017-10-24T09:39:50.844Z,7.70
2017-10-24T09:42:17.800Z,8.10
2017-10-24T09:44:46.006Z,7.23
2017-10-24T09:47:14.091Z,7.30
2017-10-24T09:49:47.548Z,7.97
2017-10-24T09:52:15.141Z,8.43
2017-10-24T09:54:42.226Z,8.20
2017-10-24T09:57:09.334Z,8.20
2017-10-24T09:59:35.878Z,7.70
2017-10-24T10:02:04.671Z,8.70
2017-10-24T10:04:33.015Z,8.50
2017-10-24T10:07:03.311Z,8.03
2017-10-24T10:09:30.585Z,9.03
2017-10-24T10:11:57.762Z,7.83
2017-10-24T10:14:26.552Z,9.23
2017-10-24T10:16:53.951Z,9.43
2017-10-24T10:19:21.655Z,9.60
2017-10-24T10:21:49.932Z,8.23
2017-10-24T10:24:24.045Z,11.50
2017-10-24T10:26:51.340Z,8.20
2017-10-24T10:29:18.401Z,7.80
2017-10-24T10:31:46.712Z,7.23
2017-10-24T10:34:14.072Z,6.97
2017-10-24T10:36:42.488Z,6.70
2017-10-24T10:39:09.925Z,6.70
2017-10-24T10:41:37.092Z,6.23
2017-10-24T10:44:04.424Z,7.40
2017-10-24T10:46:32.708Z,5.20
2017-10-24T10:49:02.321Z,4.60
2017-10-24T10:51:29.796Z,4.80
2017-10-24T10:53:57.216Z,4.27
2017-10-24T10:56:24.475Z,4.50
2017-10-24T10:58:52.460Z,8.53
2017-10-24T11:01:20.222Z,5.00
2017-10-24T11:03:47.392Z,4.30
2017-10-24T11:06:15.652Z,8.60
2017-10-24T11:08:43.103Z,5.23
2017-10-24T11:11:11.077Z,4.53
2017-10-24T11:13:38.848Z,4.57
2017-10-24T11:16:07.052Z,4.63
2017-10-24T11:18:34.477Z,4.67
2017-10-24T11:21:02.456Z,4.40
2017-10-24T11:23:30.296Z,4.60
2017-10-24T11:25:58.240Z,4.97
2017-10-24T11:28:33.695Z,5.77
2017-10-24T11:31:00.932Z,5.50
2017-10-24T11:33:32.533Z,5.00
2017-10-24T11:36:02.078Z,6.07
2017-10-24T11:38:31.142Z,5.77
2017-10-24T11:41:01.057Z,5.20
2017-10-24T11:43:29.928Z,5.50
2017-10-24T11:45:57.387Z,5.67
2017-10-24T11:48:25.691Z,6.80
2017-10-24T11:50:52.820Z,6.80
2017-10-24T11:53:20.044Z,6.07
2017-10-24T11:55:50.260Z,7.23
2017-10-24T11:58:18.181Z,7.03
2017-10-24T12:00:46.461Z,8.03
2017-10-24T12:03:13.966Z,7.17
2017-10-24T12:05:42.836Z,10.43
2017-10-24T12:08:12.418Z,7.67
2017-10-24T12:10:41.171Z,7.53
2017-10-24T12:13:12.627Z,8.50
2017-10-24T12:15:40.506Z,6.67
2017-10-24T12:18:08.337Z,8.10
2017-10-24T12:20:40.526Z,6.07
2017-10-24T12:23:14.609Z,7.10
2017-10-24T12:25:48.001Z,6.90
2017-10-24T12:28:15.397Z,7.27
2017-10-24T12:30:47.335Z,7.57
2017-10-24T12:33:14.705Z,7.10
2017-10-24T12:35:43.044Z,8.90
2017-10-24T12:38:12.349Z,7.13
2017-10-24T12:40:50.745Z,5.77
2017-10-24T12:43:20.280Z,6.40
2017-10-24T12:45:49.040Z,6.67
2017-10-24T12:48:20.464Z,5.60
2017-10-24T12:50:48.400Z,5.03
2017-10-24T12:53:21.160Z,5.50
2017-10-24T12:55:49.711Z,5.17
2017-10-24T12:58:18.968Z,5.97
2017-10-24T13:00:46.400Z,6.63
2017-10-24T13:03:15.658Z,5.93
2017-10-24T13:05:46.336Z,6.13
2017-10-24T13:08:19.751Z,5.13
2017-10-24T13:10:49.805Z,8.27
2017-10-24T13:13:19.706Z,5.37
2017-10-24T13:15:49.367Z,6.17
2017-10-24T13:18:25.232Z,5.50
2017-10-24T13:20:54.648Z,4.40
2017-10-24T13:23:22.691Z,5.00
2017-10-24T13:25:50.196Z,4.63
2017-10-24T13:28:18.732Z,3.67
2017-10-24T13:30:46.291Z,4.57
2017-10-24T13:33:13.211Z,4.37
2017-10-24T13:35:41.827Z,5.77
2017-10-24T13:38:09.434Z,5.73
2017-10-24T13:40:36.403Z,4.53
2017-10-24T13:43:03.797Z,3.97
2017-10-24T13:45:34.779Z,4.37
2017-10-24T13:48:06.093Z,4.43
2017-10-24T13:50:34.507Z,4.07
2017-10-24T13:53:02.444Z,4.43
2017-10-24T13:55:29.996Z,4.50
2017-10-24T13:57:57.936Z,3.67
2017-10-24T14:00:27.557Z,5.00
2017-10-24T14:02:55.536Z,4.07
2017-10-24T14:05:28.724Z,3.33
2017-10-24T14:08:18.328Z,5.77
2017-10-24T14:10:47.193Z,3.50
2017-10-24T14:13:19.704Z,3.83
2017-10-24T14:15:48.554Z,5.17
2017-10-24T14:18:15.851Z,3.87
2017-10-24T14:20:46.696Z,3.97
2017-10-24T14:23:14.432Z,3.37
2017-10-24T14:25:47.344Z,4.00
2017-10-24T14:28:20.611Z,2.97
2017-10-24T14:30:48.865Z,3.90
2017-10-24T14:33:21.255Z,4.30
2017-10-24T14:36:02.916Z,3.90
2017-10-24T14:38:36.798Z,3.73
2017-10-24T14:41:19.639Z,4.97
2017-10-24T14:43:48.216Z,3.37
2017-10-24T14:46:17.272Z,3.77
2017-10-24T14:48:45.653Z,2.97
2017-10-24T14:51:17.791Z,3.43
2017-10-24T14:53:48.821Z,4.60
2017-10-24T14:56:22.113Z,3.23
2017-10-24T14:58:51.444Z,3.50
2017-10-24T15:01:18.684Z,3.43
2017-10-24T15:03:52.181Z,5.73
2017-10-24T15:06:20.426Z,3.57
2017-10-24T15:08:49.585Z,3.63
2017-10-24T15:11:20.841Z,3.60
2017-10-24T15:13:51.474Z,3.10
2017-10-24T15:16:23.302Z,2.50
2017-10-24T15:18:57.004Z,3.30
2017-10-24T15:21:24.241Z,3.57
2017-10-24T15:23:52.493Z,3.70
2017-10-24T15:26:22.057Z,2.93
2017-10-24T15:28:49.522Z,3.13
2017-10-24T15:31:17.352Z,2.90
2017-10-24T15:33:44.437Z,3.47
2017-10-24T15:36:11.346Z,3.57
2017-10-24T15:38:38.840Z,3.20
2017-10-24T15:41:06.856Z,3.63
2017-10-24T15:43:34.576Z,3.47
2017-10-24T15:46:03.398Z,3.57
2017-10-24T15:48:31.659Z,6.50
2017-10-24T15:50:58.896Z,6.57
2017-10-24T15:53:26.419Z,4.30
2017-10-24T15:55:53.629Z,4.57
2017-10-24T15:58:21.785Z,3.03
2017-10-24T16:00:52.946Z,3.80
2017-10-24T16:03:32.844Z,3.20
2017-10-24T16:06:18.427Z,2.70
2017-10-24T16:09:04.284Z,3.03
2017-10-24T16:11:40.615Z,4.00
2017-10-24T16:14:07.531Z,2.90
2017-10-24T16:16:34.701Z,2.53
2017-10-24T16:19:02.797Z,3.00
2017-10-24T16:21:29.944Z,2.70
2017-10-24T16:23:57.287Z,3.07
2017-10-24T16:26:24.420Z,2.60
2017-10-24T16:28:53.130Z,3.13
2017-10-24T16:31:20.272Z,3.60
2017-10-24T16:33:48.356Z,3.73
2017-10-24T16:36:29.812Z,3.33
2017-10-24T16:39:11.679Z,3.13
2017-10-24T16:41:52.742Z,3.60
2017-10-24T16:44:31.584Z,4.37
2017-10-24T16:47:12.343Z,3.47
2017-10-24T16:49:52.341Z,3.87
2017-10-24T16:52:33.100Z,4.00
2017-10-24T16:55:14.443Z,4.07
2017-10-24T16:58:00.503Z,3.40
2017-10-24T17:00:43.956Z,3.40
2017-10-24T17:03:24.365Z,4.20
2017-10-24T17:05:53.054Z,4.37
2017-10-24T17:08:33.562Z,5.43
2017-10-24T17:14:02.172Z,5.57
2017-10-24T17:16:30.166Z,4.90
2017-10-24T17:18:57.422Z,4.60
2017-10-24T17:21:24.439Z,5.53
2017-10-24T17:23:52.081Z,5.90
2017-10-24T17:29:19.488Z,5.80
2017-10-24T17:32:02.702Z,6.30
2017-10-24T17:34:47.612Z,7.13
2017-10-24T17:40:16.346Z,7.33
2017-10-24T17:42:58.357Z,8.50
2017-10-24T17:45:42.187Z,8.60
2017-10-24T17:48:23.545Z,12.80
2017-10-24T17:50:53.699Z,8.60
2017-10-24T17:53:39.551Z,9.40
2017-10-24T17:56:24.161Z,8.90
2017-10-24T17:59:06.817Z,9.00
2017-10-24T18:01:49.764Z,8.77
2017-10-24T18:04:35.228Z,9.30
2017-10-24T18:07:19.862Z,9.00
2017-10-24T18:10:01.904Z,9.87
2017-10-24T18:12:44.473Z,10.30
2017-10-24T18:15:27.420Z,12.33
2017-10-24T18:18:11.701Z,10.60
2017-10-24T18:20:53.644Z,11.03
2017-10-24T18:23:39.211Z,10.67
2017-10-24T18:26:17.931Z,12.10
2017-10-24T18:29:01.661Z,12.30
2017-10-24T18:31:43.483Z,12.07
2017-10-24T18:34:26.773Z,11.17
2017-10-24T18:37:08.564Z,10.60
2017-10-24T18:45:28.085Z,11.93
2017-10-24T18:48:12.862Z,12.00
2017-10-24T18:50:57.633Z,11.80
2017-10-24T18:53:38.925Z,12.03
2017-10-24T18:56:24.372Z,11.23
2017-10-24T18:58:55.765Z,11.10
2017-10-24T19:01:38.630Z,11.33
2017-10-24T19:04:22.384Z,10.97
2017-10-24T19:07:07.337Z,11.93
2017-10-24T19:12:41.764Z,11.90
2017-10-24T19:15:28.249Z,11.53
2017-10-24T19:18:13.033Z,12.73
2017-10-24T19:20:42.066Z,13.30
2017-10-24T19:26:11.735Z,10.43
2017-10-24T19:31:44.756Z,11.73
2017-10-24T19:34:27.361Z,11.30
2017-10-24T19:37:08.806Z,10.63
2017-10-24T19:39:52.469Z,10.40
2017-10-24T19:42:35.692Z,11.17
2017-10-24T19:45:18.909Z,11.63
2017-10-24T19:48:02.945Z,11.80
2017-10-24T19:50:31.203Z,11.93
2017-10-24T19:52:58.184Z,12.47
2017-10-24T19:55:26.179Z,13.43
2017-10-24T19:57:53.496Z,11.27
2017-10-24T20:00:22.635Z,11.43
2017-10-24T20:02:49.752Z,10.10
2017-10-24T20:05:17.304Z,10.27
2017-10-24T20:07:59.808Z,9.50
2017-10-24T20:10:44.361Z,10.23
2017-10-24T20:13:27.690Z,10.37
2017-10-24T20:18:52.302Z,10.20
2017-10-24T20:21:38.682Z,9.03
2017-10-24T20:24:06.346Z,8.77
2017-10-24T20:26:33.693Z,8.73
2017-10-24T20:29:00.686Z,10.40
2017-10-24T20:31:28.244Z,10.83
2017-10-24T20:33:55.444Z,10.73
2017-10-24T20:36:23.088Z,9.33
2017-10-24T20:38:50.298Z,8.70
2017-10-24T20:41:18.497Z,9.40
2017-10-24T20:43:52.463Z,8.90
2017-10-24T20:46:40.243Z,9.20
2017-10-24T20:49:18.208Z,9.73
2017-10-24T20:52:02.641Z,8.67
2017-10-24T20:54:46.128Z,10.27
2017-10-24T20:57:26.803Z,10.33
2017-10-24T21:00:09.276Z,11.43
2017-10-24T21:05:44.612Z,8.80
2017-10-24T21:08:28.262Z,10.23
2017-10-24T21:11:12.367Z,9.87
2017-10-24T21:13:55.010Z,9.73
2017-10-24T21:19:09.251Z,9.17
2017-10-24T21:21:50.561Z,12.10
2017-10-24T21:24:32.859Z,8.00
2017-10-24T21:27:15.059Z,7.50
2017-10-24T21:29:42.827Z,10.10
2017-10-24T21:32:10.507Z,8.70
2017-10-24T21:34:37.528Z,8.23
2017-10-24T21:37:07.861Z,9.00
2017-10-24T21:39:35.644Z,8.90
2017-10-24T21:42:03.136Z,9.10
2017-10-24T21:44:30.187Z,8.57
2017-10-24T21:46:57.904Z,10.80
2017-10-24T21:49:24.876Z,9.07
2017-10-24T21:51:52.580Z,9.27
2017-10-24T21:54:20.311Z,9.33
2017-10-24T21:56:47.297Z,10.73
2017-10-24T21:59:15.329Z,9.60
2017-10-24T22:01:43.787Z,9.50
2017-10-24T22:04:11.790Z,9.47
2017-10-24T22:06:39.629Z,9.60
2017-10-24T22:09:09.295Z,9.07
2017-10-24T22:11:37.565Z,10.27
2017-10-24T22:14:05.564Z,10.93
2017-10-24T22:16:32.835Z,8.73
2017-10-24T22:19:00.394Z,9.73
2017-10-24T22:21:28.372Z,10.83
2017-10-24T22:23:55.452Z,9.60
2017-10-24T22:26:23.081Z,9.90
2017-10-24T22:28:50.454Z,10.73
2017-10-24T22:31:17.617Z,11.87
2017-10-24T22:33:45.358Z,11.20
2017-10-24T22:36:12.735Z,10.17
2017-10-24T22:38:40.582Z,9.83
2017-10-24T22:41:09.396Z,11.10
2017-10-24T22:43:36.548Z,11.87
2017-10-24T22:46:03.975Z,12.20
2017-10-24T22:48:32.472Z,12.77
2017-10-24T22:50:59.460Z,11.93
2017-10-24T22:53:26.719Z,13.00
2017-10-24T22:55:55.069Z,12.80
2017-10-24T22:58:23.658Z,12.60
2017-10-24T23:00:51.930Z,14.23
2017-10-24T23:03:18.852Z,13.50
2017-10-24T23:05:46.088Z,14.20
2017-10-24T23:08:14.684Z,14.47
2017-10-24T23:10:43.976Z,13.20
2017-10-24T23:13:11.888Z,11.93
2017-10-24T23:15:39.571Z,14.37
2017-10-24T23:18:07.318Z,12.80
2017-10-24T23:20:35.301Z,13.73
2017-10-24T23:23:03.404Z,14.67
2017-10-24T23:25:30.716Z,13.00
2017-10-24T23:27:59.955Z,13.50
2017-10-24T23:30:27.031Z,14.37
2017-10-24T23:32:54.456Z,13.53
2017-10-24T23:35:22.696Z,13.50
2017-10-24T23:37:50.094Z,15.80
2017-10-24T23:40:17.479Z,12.50
2017-10-24T23:42:44.357Z,13.87
2017-10-24T23:45:11.919Z,14.33
2017-10-24T23:47:38.989Z,14.57
2017-10-24T23:50:06.668Z,13.30
2017-10-24T23:52:33.856Z,13.77
2017-10-24T23:55:00.896Z,12.87
2017-10-24T23:57:28.821Z,12.10
2017-10-24T23:59:56.603Z,15.30
